createdAt,value
2022-09-21T00:03:20.199Z,8.20
2022-09-21T00:07:37.387Z,8.30
2022-09-21T00:11:58.168Z,8.20
2022-09-21T00:16:17.143Z,8.20
2022-09-21T00:20:34.389Z,8.20
2022-09-21T00:24:51.464Z,8.20
2022-09-21T00:29:10.343Z,8.10
2022-09-21T00:33:27.555Z,8.10
2022-09-21T00:37:44.882Z,8.10
2022-09-21T00:42:03.167Z,8.10
2022-09-21T00:46:29.642Z,8.10
2022-09-21T00:50:54.118Z,8.10
2022-09-21T00:55:24.349Z,8.10
2022-09-21T00:59:44.920Z,8.10
2022-09-21T01:04:03.057Z,8.20
2022-09-21T01:08:21.453Z,8.20
2022-09-21T01:12:50.760Z,8.30
2022-09-21T01:17:18.710Z,8.30
2022-09-21T01:21:54.013Z,8.30
2022-09-21T01:26:32.696Z,8.30
2022-09-21T01:30:54.497Z,8.30
2022-09-21T01:35:11.677Z,8.30
2022-09-21T01:39:30.445Z,8.30
2022-09-21T01:43:57.615Z,8.30
2022-09-21T01:48:15.701Z,8.30
2022-09-21T01:52:47.041Z,8.30
2022-09-21T01:57:29.244Z,8.30
2022-09-21T02:01:53.371Z,8.20
2022-09-21T02:06:12.521Z,8.20
2022-09-21T02:10:39.975Z,8.20
2022-09-21T02:14:57.808Z,8.30
2022-09-21T02:19:25.773Z,8.20
2022-09-21T02:24:07.779Z,8.20
2022-09-21T02:28:38.810Z,8.10
2022-09-21T02:33:19.382Z,8.10
2022-09-21T02:38:08.185Z,7.90
2022-09-21T02:42:31.223Z,7.90
2022-09-21T02:46:54.866Z,7.70
2022-09-21T02:51:16.885Z,7.60
2022-09-21T02:55:34.721Z,7.50
2022-09-21T02:59:52.848Z,7.40
2022-09-21T03:04:11.098Z,7.30
2022-09-21T03:08:28.743Z,7.20
2022-09-21T03:12:46.892Z,7.10
2022-09-21T03:17:04.320Z,7.00
2022-09-21T03:21:22.072Z,6.90
2022-09-21T03:25:39.358Z,6.90
2022-09-21T03:30:00.023Z,6.90
2022-09-21T03:34:19.077Z,6.90
2022-09-21T03:38:37.735Z,6.80
2022-09-21T03:42:55.379Z,6.50
2022-09-21T03:47:12.499Z,6.40
2022-09-21T03:51:31.514Z,6.30
2022-09-21T03:55:49.371Z,6.20
2022-09-21T04:00:09.477Z,6.20
2022-09-21T04:04:29.160Z,6.10
2022-09-21T04:08:46.394Z,6.30
2022-09-21T04:13:04.835Z,6.20
2022-09-21T04:17:22.072Z,6.10
2022-09-21T04:21:39.372Z,5.90
2022-09-21T04:25:57.462Z,5.70
2022-09-21T04:30:16.514Z,5.70
2022-09-21T04:34:33.771Z,5.60
2022-09-21T04:38:52.056Z,5.50
2022-09-21T04:43:09.613Z,5.40
2022-09-21T04:47:29.164Z,5.40
2022-09-21T04:51:46.763Z,5.50
2022-09-21T04:56:06.283Z,5.40
2022-09-21T05:00:25.921Z,5.40
2022-09-21T05:04:50.119Z,5.30
2022-09-21T05:09:28.290Z,5.30
2022-09-21T05:13:46.148Z,5.40
2022-09-21T05:18:05.260Z,5.40
2022-09-21T05:22:22.479Z,5.40
2022-09-21T05:26:39.820Z,5.50
2022-09-21T05:31:25.144Z,5.50
2022-09-21T05:35:59.075Z,5.40
2022-09-21T05:40:17.119Z,5.40
2022-09-21T05:44:34.815Z,5.40
2022-09-21T05:49:02.266Z,5.50
2022-09-21T05:53:48.630Z,5.50
2022-09-21T05:58:26.624Z,5.70
2022-09-21T06:02:50.230Z,5.80
2022-09-21T06:07:07.570Z,6.00
2022-09-21T06:11:27.547Z,6.10
2022-09-21T06:15:45.047Z,6.30
2022-09-21T06:20:03.321Z,6.50
2022-09-21T06:24:20.636Z,6.60
2022-09-21T06:28:37.987Z,6.80
2022-09-21T06:32:58.343Z,7.00
2022-09-21T06:37:15.948Z,7.10
2022-09-21T06:41:33.291Z,7.20
2022-09-21T06:45:55.485Z,7.20
2022-09-21T06:50:12.912Z,7.30
2022-09-21T06:54:30.423Z,7.40
2022-09-21T06:58:48.075Z,7.50
2022-09-21T07:03:05.787Z,7.60
2022-09-21T07:07:23.090Z,7.60
2022-09-21T07:11:42.048Z,7.80
2022-09-21T07:16:03.196Z,7.90
2022-09-21T07:20:20.782Z,8.00
2022-09-21T07:24:38.126Z,8.10
2022-09-21T07:28:55.815Z,8.30
2022-09-21T07:33:13.019Z,8.40
2022-09-21T07:37:33.214Z,8.70
2022-09-21T07:41:50.510Z,8.70
2022-09-21T07:46:10.409Z,9.10
2022-09-21T07:50:27.696Z,9.20
2022-09-21T07:54:45.400Z,9.50
2022-09-21T07:59:06.150Z,9.80
2022-09-21T08:03:23.502Z,10.00
2022-09-21T08:07:40.847Z,10.40
2022-09-21T08:11:58.627Z,10.70
2022-09-21T08:16:15.972Z,10.80
2022-09-21T08:20:34.223Z,11.00
2022-09-21T08:24:52.786Z,11.40
2022-09-21T08:29:10.131Z,11.50
2022-09-21T08:33:30.705Z,11.60
2022-09-21T08:37:48.009Z,11.90
2022-09-21T08:42:20.612Z,12.00
2022-09-21T08:46:39.003Z,12.00
2022-09-21T08:51:01.210Z,12.50
2022-09-21T08:55:21.396Z,13.00
2022-09-21T08:59:42.964Z,13.00
2022-09-21T09:04:45.489Z,12.90
2022-09-21T09:09:22.437Z,12.60
2022-09-21T09:13:53.908Z,12.70
2022-09-21T09:18:25.173Z,13.40
2022-09-21T09:23:08.442Z,14.00
2022-09-21T09:27:32.645Z,14.80
2022-09-21T09:31:51.485Z,15.10
2022-09-21T09:36:11.477Z,16.20
2022-09-21T09:40:35.154Z,16.60
2022-09-21T09:45:24.943Z,17.20
2022-09-21T09:50:01.532Z,17.80
2022-09-21T09:54:23.026Z,18.00
2022-09-21T09:59:17.328Z,19.40
2022-09-21T10:03:34.825Z,17.80
2022-09-21T10:07:53.589Z,18.70
2022-09-21T10:12:27.431Z,18.20
2022-09-21T10:16:45.108Z,18.30
2022-09-21T10:21:04.630Z,18.40
2022-09-21T10:25:22.036Z,17.80
2022-09-21T10:29:46.198Z,16.30
2022-09-21T10:34:25.653Z,15.90
2022-09-21T10:38:43.013Z,17.50
2022-09-21T10:43:00.864Z,17.70
2022-09-21T10:47:41.441Z,16.00
2022-09-21T10:52:01.674Z,16.60
2022-09-21T10:56:19.566Z,19.70
2022-09-21T11:00:48.311Z,17.70
2022-09-21T11:05:14.579Z,17.50
2022-09-21T11:09:40.739Z,20.20
2022-09-21T11:14:34.933Z,20.00
2022-09-21T11:19:18.883Z,20.00
2022-09-21T11:23:42.181Z,21.10
2022-09-21T11:28:34.993Z,22.10
2022-09-21T11:33:31.415Z,21.00
2022-09-21T11:37:58.502Z,18.40
2022-09-21T11:42:41.642Z,18.80
2022-09-21T11:47:24.461Z,20.50
2022-09-21T11:52:12.021Z,21.70
2022-09-21T11:56:37.134Z,21.30
2022-09-21T12:01:08.054Z,19.00
2022-09-21T12:05:43.366Z,16.90
2022-09-21T12:10:37.165Z,19.00
2022-09-21T12:15:25.075Z,21.80
2022-09-21T12:19:51.369Z,22.60
2022-09-21T12:24:22.989Z,20.70
2022-09-21T12:28:48.046Z,20.30
2022-09-21T12:33:34.302Z,19.50
2022-09-21T12:38:01.598Z,17.40
2022-09-21T12:42:39.120Z,19.60
2022-09-21T12:47:09.792Z,17.60
2022-09-21T12:51:38.556Z,16.10
2022-09-21T12:56:01.359Z,15.30
2022-09-21T13:00:22.593Z,14.80
2022-09-21T13:04:58.715Z,14.70
2022-09-21T13:09:19.864Z,14.70
2022-09-21T13:13:51.307Z,17.00
2022-09-21T13:18:26.997Z,18.90
2022-09-21T13:22:46.180Z,20.20
2022-09-21T13:27:08.214Z,18.50
2022-09-21T13:31:56.188Z,17.10
2022-09-21T13:36:33.927Z,16.40
2022-09-21T13:46:06.420Z,16.10
2022-09-21T13:50:31.579Z,16.00
2022-09-21T13:54:53.650Z,15.80
2022-09-21T13:59:24.732Z,15.60
2022-09-21T14:03:49.180Z,15.50
2022-09-21T14:08:15.717Z,15.50
2022-09-21T14:12:41.582Z,15.40
2022-09-21T14:17:05.326Z,15.40
2022-09-21T14:21:23.403Z,15.60
2022-09-21T14:25:52.443Z,15.80
2022-09-21T14:30:23.095Z,15.40
2022-09-21T14:34:44.233Z,15.40
2022-09-21T14:39:05.084Z,15.40
2022-09-21T14:43:30.236Z,15.40
2022-09-21T14:48:08.826Z,15.30
2022-09-21T14:52:38.333Z,15.40
2022-09-21T14:57:34.811Z,15.40
2022-09-21T15:02:07.400Z,15.30
2022-09-21T15:07:02.853Z,15.30
2022-09-21T15:11:37.104Z,15.40
2022-09-21T15:16:09.931Z,15.30
2022-09-21T15:20:31.157Z,15.10
2022-09-21T15:24:58.109Z,15.20
2022-09-21T15:29:31.495Z,15.00
2022-09-21T15:33:52.481Z,14.70
2022-09-21T15:38:27.747Z,14.40
2022-09-21T15:43:29.873Z,14.30
2022-09-21T15:47:47.418Z,13.90
2022-09-21T15:52:13.856Z,13.70
2022-09-21T15:56:31.427Z,13.40
2022-09-21T16:00:56.389Z,13.30
2022-09-21T16:05:15.749Z,13.10
2022-09-21T16:09:46.056Z,13.00
2022-09-21T16:14:31.177Z,12.90
2022-09-21T16:18:55.128Z,12.60
2022-09-21T16:23:15.884Z,12.50
2022-09-21T16:27:33.250Z,12.40
2022-09-21T16:31:51.626Z,12.30
2022-09-21T16:36:19.740Z,12.20
2022-09-21T16:40:36.954Z,11.90
2022-09-21T16:44:55.019Z,11.70
2022-09-21T16:49:18.529Z,11.50
2022-09-21T16:53:36.092Z,11.40
2022-09-21T16:57:53.871Z,11.20
2022-09-21T17:02:14.151Z,11.00
2022-09-21T17:06:31.489Z,10.70
2022-09-21T17:10:48.917Z,10.60
2022-09-21T17:15:08.022Z,10.40
2022-09-21T17:19:25.438Z,10.30
2022-09-21T17:23:43.019Z,10.10
2022-09-21T17:28:01.943Z,9.80
2022-09-21T17:32:22.440Z,9.60
2022-09-21T17:36:40.087Z,9.50
2022-09-21T17:40:58.355Z,9.40
2022-09-21T17:45:28.896Z,9.30
2022-09-21T17:49:47.480Z,9.20
2022-09-21T17:54:05.239Z,9.10
2022-09-21T17:58:38.763Z,9.00
2022-09-21T18:02:56.236Z,8.90
2022-09-21T18:07:13.808Z,8.70
2022-09-21T18:11:55.851Z,8.60
2022-09-21T18:16:27.233Z,8.50
2022-09-21T18:21:03.654Z,8.40
2022-09-21T18:25:48.153Z,8.30
2022-09-21T18:30:05.991Z,8.20
2022-09-21T18:34:51.391Z,8.20
2022-09-21T18:39:14.575Z,8.10
2022-09-21T18:43:49.017Z,8.00
2022-09-21T18:48:24.661Z,7.90
2022-09-21T18:53:11.940Z,7.80
2022-09-21T18:57:32.637Z,7.80
2022-09-21T19:01:52.588Z,7.70
2022-09-21T19:06:30.153Z,7.70
2022-09-21T19:11:22.895Z,7.70
2022-09-21T19:16:06.143Z,7.60
2022-09-21T19:20:51.449Z,7.50
2022-09-21T19:25:36.446Z,7.40
2022-09-21T19:30:05.034Z,7.20
2022-09-21T19:34:22.579Z,7.10
2022-09-21T19:38:40.482Z,7.10
2022-09-21T19:43:03.934Z,7.20
2022-09-21T19:47:31.865Z,7.10
2022-09-21T19:51:51.454Z,7.00
2022-09-21T19:56:32.497Z,7.10
2022-09-21T20:00:55.420Z,7.10
2022-09-21T20:05:23.369Z,6.90
2022-09-21T20:09:46.459Z,6.80
2022-09-21T20:14:14.865Z,6.80
2022-09-21T20:18:56.873Z,6.80
2022-09-21T20:23:14.545Z,6.90
2022-09-21T20:27:39.753Z,7.00
2022-09-21T20:32:00.974Z,7.00
2022-09-21T20:36:18.374Z,6.90
2022-09-21T20:40:36.038Z,6.70
2022-09-21T20:44:54.272Z,6.80
2022-09-21T20:49:15.522Z,6.80
2022-09-21T20:53:33.995Z,6.90
2022-09-21T20:57:51.528Z,6.70
2022-09-21T21:02:13.140Z,6.80
2022-09-21T21:06:35.043Z,6.80
2022-09-21T21:10:55.721Z,6.70
2022-09-21T21:15:13.367Z,6.60
2022-09-21T21:19:31.871Z,6.60
2022-09-21T21:24:08.770Z,6.60
2022-09-21T21:28:28.494Z,6.50
2022-09-21T21:32:45.820Z,6.50
2022-09-21T21:37:03.551Z,6.40
2022-09-21T21:41:20.861Z,6.30
2022-09-21T21:45:39.311Z,6.20
2022-09-21T21:49:56.629Z,6.20
2022-09-21T21:54:14.915Z,6.20
2022-09-21T21:58:33.294Z,6.20
2022-09-21T22:02:51.000Z,6.00
2022-09-21T22:07:08.463Z,6.00
2022-09-21T22:11:29.365Z,6.00
2022-09-21T22:15:48.094Z,5.90
2022-09-21T22:20:05.532Z,5.80
2022-09-21T22:24:22.799Z,5.80
2022-09-21T22:28:41.663Z,5.80
2022-09-21T22:32:59.284Z,5.70
2022-09-21T22:37:16.875Z,5.70
2022-09-21T22:41:36.934Z,5.70
2022-09-21T22:45:54.538Z,5.60
2022-09-21T22:50:12.114Z,5.50
2022-09-21T22:54:29.540Z,5.50
2022-09-21T22:58:49.025Z,5.40
2022-09-21T23:03:07.082Z,5.50
2022-09-21T23:07:24.663Z,5.40
2022-09-21T23:11:44.031Z,5.40
2022-09-21T23:16:03.035Z,5.30
2022-09-21T23:20:20.374Z,5.30
2022-09-21T23:24:38.103Z,5.40
2022-09-21T23:28:59.900Z,5.40
2022-09-21T23:33:18.843Z,5.20
2022-09-21T23:37:36.118Z,5.20
2022-09-21T23:41:53.392Z,5.10
2022-09-21T23:46:12.783Z,5.20
2022-09-21T23:50:30.019Z,5.40
2022-09-21T23:54:48.241Z,5.50
2022-09-21T23:59:05.614Z,5.60
